sensor_id;sensor_type;location;lat;lon;timestamp;P1;durP1;ratioP1;P2;durP2;ratioP2
4377;SDS011;2203;53.686;9.994;2022-10-31T00:00:07;44.83;;;21.20;;
4377;SDS011;2203;53.686;9.994;2022-10-31T00:02:33;54.53;;;21.00;;
4377;SDS011;2203;53.686;9.994;2022-10-31T00:04:58;33.87;;;20.00;;
4377;SDS011;2203;53.686;9.994;2022-10-31T00:07:24;48.93;;;21.77;;
4377;SDS011;2203;53.686;9.994;2022-10-31T00:09:49;46.40;;;20.60;;
4377;SDS011;2203;53.686;9.994;2022-10-31T00:12:14;40.50;;;20.83;;
4377;SDS011;2203;53.686;9.994;2022-10-31T00:14:40;47.80;;;21.50;;
4377;SDS011;2203;53.686;9.994;2022-10-31T00:17:05;44.00;;;22.63;;
4377;SDS011;2203;53.686;9.994;2022-10-31T00:19:31;40.20;;;22.67;;
4377;SDS011;2203;53.686;9.994;2022-10-31T00:21:56;40.63;;;20.87;;
4377;SDS011;2203;53.686;9.994;2022-10-31T00:24:21;46.47;;;21.30;;
4377;SDS011;2203;53.686;9.994;2022-10-31T00:26:47;45.20;;;21.20;;
4377;SDS011;2203;53.686;9.994;2022-10-31T00:29:12;40.60;;;21.27;;
4377;SDS011;2203;53.686;9.994;2022-10-31T00:31:38;43.40;;;21.70;;
4377;SDS011;2203;53.686;9.994;2022-10-31T00:34:03;46.27;;;21.73;;
4377;SDS011;2203;53.686;9.994;2022-10-31T00:36:28;37.43;;;19.90;;
4377;SDS011;2203;53.686;9.994;2022-10-31T00:38:54;42.27;;;22.90;;
4377;SDS011;2203;53.686;9.994;2022-10-31T00:41:20;43.17;;;21.40;;
4377;SDS011;2203;53.686;9.994;2022-10-31T00:43:45;37.70;;;19.77;;
4377;SDS011;2203;53.686;9.994;2022-10-31T00:46:11;57.93;;;20.67;;
4377;SDS011;2203;53.686;9.994;2022-10-31T00:48:37;44.00;;;21.00;;
4377;SDS011;2203;53.686;9.994;2022-10-31T00:51:02;39.93;;;20.73;;
4377;SDS011;2203;53.686;9.994;2022-10-31T00:53:28;35.57;;;20.00;;
4377;SDS011;2203;53.686;9.994;2022-10-31T00:55:53;43.40;;;19.53;;
4377;SDS011;2203;53.686;9.994;2022-10-31T00:58:18;46.20;;;19.80;;
4377;SDS011;2203;53.686;9.994;2022-10-31T01:00:44;49.77;;;21.27;;
4377;SDS011;2203;53.686;9.994;2022-10-31T01:03:15;39.00;;;20.20;;
4377;SDS011;2203;53.686;9.994;2022-10-31T01:05:41;36.20;;;19.60;;
4377;SDS011;2203;53.686;9.994;2022-10-31T01:08:06;41.90;;;19.90;;
4377;SDS011;2203;53.686;9.994;2022-10-31T01:10:31;49.00;;;18.83;;
4377;SDS011;2203;53.686;9.994;2022-10-31T01:12:57;41.13;;;20.77;;
4377;SDS011;2203;53.686;9.994;2022-10-31T01:15:22;39.30;;;19.53;;
4377;SDS011;2203;53.686;9.994;2022-10-31T01:17:48;42.83;;;20.20;;
4377;SDS011;2203;53.686;9.994;2022-10-31T01:20:14;57.97;;;19.67;;
4377;SDS011;2203;53.686;9.994;2022-10-31T01:22:40;33.80;;;19.40;;
4377;SDS011;2203;53.686;9.994;2022-10-31T01:25:06;35.57;;;19.13;;
4377;SDS011;2203;53.686;9.994;2022-10-31T01:27:33;42.47;;;20.80;;
4377;SDS011;2203;53.686;9.994;2022-10-31T01:29:58;34.40;;;18.30;;
4377;SDS011;2203;53.686;9.994;2022-10-31T01:32:24;44.00;;;19.20;;
4377;SDS011;2203;53.686;9.994;2022-10-31T01:34:49;37.17;;;19.70;;
4377;SDS011;2203;53.686;9.994;2022-10-31T01:37:15;38.33;;;20.10;;
4377;SDS011;2203;53.686;9.994;2022-10-31T01:39:40;43.33;;;19.93;;
4377;SDS011;2203;53.686;9.994;2022-10-31T01:42:05;49.77;;;20.30;;
4377;SDS011;2203;53.686;9.994;2022-10-31T01:46:58;36.23;;;18.40;;
4377;SDS011;2203;53.686;9.994;2022-10-31T01:49:48;39.20;;;19.30;;
4377;SDS011;2203;53.686;9.994;2022-10-31T01:55:35;42.13;;;19.70;;
4377;SDS011;2203;53.686;9.994;2022-10-31T01:57:40;37.23;;;18.97;;
4377;SDS011;2203;53.686;9.994;2022-10-31T02:00:08;38.73;;;20.03;;
4377;SDS011;2203;53.686;9.994;2022-10-31T02:02:35;45.63;;;20.50;;
4377;SDS011;2203;53.686;9.994;2022-10-31T02:05:02;37.47;;;20.20;;
4377;SDS011;2203;53.686;9.994;2022-10-31T02:07:32;42.70;;;19.33;;
4377;SDS011;2203;53.686;9.994;2022-10-31T02:10:02;37.07;;;22.20;;
4377;SDS011;2203;53.686;9.994;2022-10-31T02:12:28;32.67;;;18.90;;
4377;SDS011;2203;53.686;9.994;2022-10-31T02:14:55;37.70;;;18.60;;
4377;SDS011;2203;53.686;9.994;2022-10-31T02:17:20;35.10;;;17.80;;
4377;SDS011;2203;53.686;9.994;2022-10-31T02:22:26;39.43;;;20.03;;
4377;SDS011;2203;53.686;9.994;2022-10-31T02:39:00;40.23;;;20.20;;
4377;SDS011;2203;53.686;9.994;2022-10-31T02:44:34;46.80;;;21.27;;
4377;SDS011;2203;53.686;9.994;2022-10-31T02:47:05;40.80;;;20.63;;
4377;SDS011;2203;53.686;9.994;2022-10-31T02:52:19;47.13;;;22.00;;
4377;SDS011;2203;53.686;9.994;2022-10-31T02:54:46;44.03;;;20.50;;
4377;SDS011;2203;53.686;9.994;2022-10-31T02:57:12;48.73;;;20.17;;
4377;SDS011;2203;53.686;9.994;2022-10-31T02:59:39;39.50;;;20.17;;
4377;SDS011;2203;53.686;9.994;2022-10-31T03:02:13;42.77;;;20.20;;
4377;SDS011;2203;53.686;9.994;2022-10-31T03:10:16;39.70;;;20.33;;
4377;SDS011;2203;53.686;9.994;2022-10-31T03:13:29;40.00;;;21.03;;
4377;SDS011;2203;53.686;9.994;2022-10-31T03:15:40;46.57;;;21.50;;
4377;SDS011;2203;53.686;9.994;2022-10-31T03:20:52;44.57;;;21.10;;
4377;SDS011;2203;53.686;9.994;2022-10-31T03:23:21;41.50;;;21.80;;
4377;SDS011;2203;53.686;9.994;2022-10-31T03:25:48;42.23;;;20.80;;
4377;SDS011;2203;53.686;9.994;2022-10-31T03:28:14;51.80;;;21.53;;
4377;SDS011;2203;53.686;9.994;2022-10-31T03:30:41;37.97;;;21.20;;
4377;SDS011;2203;53.686;9.994;2022-10-31T03:33:09;52.83;;;22.20;;
4377;SDS011;2203;53.686;9.994;2022-10-31T03:35:36;50.70;;;21.23;;
4377;SDS011;2203;53.686;9.994;2022-10-31T03:38:05;43.67;;;22.13;;
4377;SDS011;2203;53.686;9.994;2022-10-31T03:40:31;39.30;;;21.50;;
4377;SDS011;2203;53.686;9.994;2022-10-31T03:42:59;40.97;;;23.13;;
4377;SDS011;2203;53.686;9.994;2022-10-31T03:45:27;44.67;;;22.10;;
4377;SDS011;2203;53.686;9.994;2022-10-31T03:47:55;50.57;;;23.33;;
4377;SDS011;2203;53.686;9.994;2022-10-31T03:50:22;46.93;;;22.47;;
4377;SDS011;2203;53.686;9.994;2022-10-31T03:53:09;41.10;;;21.97;;
4377;SDS011;2203;53.686;9.994;2022-10-31T03:55:49;49.40;;;21.30;;
4377;SDS011;2203;53.686;9.994;2022-10-31T03:58:30;51.50;;;22.70;;
4377;SDS011;2203;53.686;9.994;2022-10-31T04:00:59;52.30;;;23.00;;
4377;SDS011;2203;53.686;9.994;2022-10-31T04:03:26;56.73;;;25.77;;
4377;SDS011;2203;53.686;9.994;2022-10-31T04:05:54;44.73;;;23.77;;
4377;SDS011;2203;53.686;9.994;2022-10-31T04:08:21;62.00;;;25.03;;
4377;SDS011;2203;53.686;9.994;2022-10-31T04:10:49;55.10;;;25.00;;
4377;SDS011;2203;53.686;9.994;2022-10-31T04:13:17;57.53;;;26.33;;
4377;SDS011;2203;53.686;9.994;2022-10-31T04:15:48;67.17;;;26.90;;
4377;SDS011;2203;53.686;9.994;2022-10-31T04:18:15;55.17;;;26.13;;
4377;SDS011;2203;53.686;9.994;2022-10-31T04:20:40;48.90;;;25.17;;
4377;SDS011;2203;53.686;9.994;2022-10-31T04:23:39;53.80;;;25.73;;
4377;SDS011;2203;53.686;9.994;2022-10-31T04:25:59;64.23;;;26.77;;
4377;SDS011;2203;53.686;9.994;2022-10-31T04:28:24;67.80;;;28.87;;
4377;SDS011;2203;53.686;9.994;2022-10-31T04:30:49;74.40;;;27.80;;
4377;SDS011;2203;53.686;9.994;2022-10-31T04:33:15;63.40;;;26.67;;
4377;SDS011;2203;53.686;9.994;2022-10-31T04:35:40;72.47;;;27.30;;
4377;SDS011;2203;53.686;9.994;2022-10-31T04:38:06;62.10;;;28.17;;
4377;SDS011;2203;53.686;9.994;2022-10-31T04:40:31;65.87;;;28.80;;
4377;SDS011;2203;53.686;9.994;2022-10-31T04:42:56;69.13;;;28.30;;
4377;SDS011;2203;53.686;9.994;2022-10-31T04:45:22;63.00;;;28.63;;
4377;SDS011;2203;53.686;9.994;2022-10-31T04:47:47;69.97;;;30.50;;
4377;SDS011;2203;53.686;9.994;2022-10-31T04:50:13;80.70;;;31.90;;
4377;SDS011;2203;53.686;9.994;2022-10-31T04:52:41;64.17;;;30.90;;
4377;SDS011;2203;53.686;9.994;2022-10-31T04:55:07;66.93;;;30.00;;
4377;SDS011;2203;53.686;9.994;2022-10-31T04:57:39;70.90;;;29.50;;
4377;SDS011;2203;53.686;9.994;2022-10-31T05:00:08;58.33;;;28.47;;
4377;SDS011;2203;53.686;9.994;2022-10-31T05:02:42;78.33;;;31.20;;
4377;SDS011;2203;53.686;9.994;2022-10-31T05:05:12;76.40;;;29.83;;
4377;SDS011;2203;53.686;9.994;2022-10-31T05:07:39;83.83;;;32.47;;
4377;SDS011;2203;53.686;9.994;2022-10-31T05:10:05;60.90;;;28.17;;
4377;SDS011;2203;53.686;9.994;2022-10-31T05:12:31;63.53;;;30.80;;
4377;SDS011;2203;53.686;9.994;2022-10-31T05:14:56;68.93;;;31.27;;
4377;SDS011;2203;53.686;9.994;2022-10-31T05:17:22;66.07;;;29.77;;
4377;SDS011;2203;53.686;9.994;2022-10-31T05:19:47;70.70;;;28.57;;
4377;SDS011;2203;53.686;9.994;2022-10-31T05:22:12;60.27;;;28.47;;
4377;SDS011;2203;53.686;9.994;2022-10-31T05:24:38;59.00;;;27.50;;
4377;SDS011;2203;53.686;9.994;2022-10-31T05:27:03;65.67;;;30.80;;
4377;SDS011;2203;53.686;9.994;2022-10-31T05:29:28;63.50;;;28.77;;
4377;SDS011;2203;53.686;9.994;2022-10-31T05:31:58;73.07;;;29.47;;
4377;SDS011;2203;53.686;9.994;2022-10-31T05:34:23;70.80;;;28.07;;
4377;SDS011;2203;53.686;9.994;2022-10-31T05:36:49;61.77;;;28.80;;
4377;SDS011;2203;53.686;9.994;2022-10-31T05:39:14;63.17;;;28.10;;
4377;SDS011;2203;53.686;9.994;2022-10-31T05:41:40;58.40;;;26.80;;
4377;SDS011;2203;53.686;9.994;2022-10-31T05:44:05;64.43;;;26.00;;
4377;SDS011;2203;53.686;9.994;2022-10-31T05:46:30;69.33;;;28.50;;
4377;SDS011;2203;53.686;9.994;2022-10-31T05:48:56;64.23;;;27.77;;
4377;SDS011;2203;53.686;9.994;2022-10-31T05:51:21;68.10;;;28.23;;
4377;SDS011;2203;53.686;9.994;2022-10-31T05:53:46;61.77;;;28.60;;
4377;SDS011;2203;53.686;9.994;2022-10-31T05:56:12;66.17;;;28.07;;
4377;SDS011;2203;53.686;9.994;2022-10-31T05:58:38;62.60;;;27.93;;
4377;SDS011;2203;53.686;9.994;2022-10-31T06:01:03;53.63;;;24.27;;
4377;SDS011;2203;53.686;9.994;2022-10-31T06:03:29;55.67;;;26.70;;
4377;SDS011;2203;53.686;9.994;2022-10-31T06:05:54;60.77;;;28.90;;
4377;SDS011;2203;53.686;9.994;2022-10-31T06:08:19;63.97;;;28.77;;
4377;SDS011;2203;53.686;9.994;2022-10-31T06:10:45;51.37;;;26.47;;
4377;SDS011;2203;53.686;9.994;2022-10-31T06:13:10;62.37;;;28.67;;
4377;SDS011;2203;53.686;9.994;2022-10-31T06:15:36;60.43;;;26.53;;
4377;SDS011;2203;53.686;9.994;2022-10-31T06:18:02;66.07;;;28.27;;
4377;SDS011;2203;53.686;9.994;2022-10-31T06:20:29;57.30;;;25.70;;
4377;SDS011;2203;53.686;9.994;2022-10-31T06:22:54;63.30;;;24.90;;
4377;SDS011;2203;53.686;9.994;2022-10-31T06:25:19;51.60;;;24.40;;
4377;SDS011;2203;53.686;9.994;2022-10-31T06:27:45;51.03;;;25.40;;
4377;SDS011;2203;53.686;9.994;2022-10-31T06:30:10;68.77;;;27.53;;
4377;SDS011;2203;53.686;9.994;2022-10-31T06:32:36;60.23;;;26.10;;
4377;SDS011;2203;53.686;9.994;2022-10-31T06:35:01;61.20;;;26.13;;
4377;SDS011;2203;53.686;9.994;2022-10-31T06:37:27;54.30;;;26.53;;
4377;SDS011;2203;53.686;9.994;2022-10-31T06:39:52;52.73;;;25.00;;
4377;SDS011;2203;53.686;9.994;2022-10-31T06:42:18;54.37;;;23.90;;
4377;SDS011;2203;53.686;9.994;2022-10-31T06:44:43;54.40;;;25.57;;
4377;SDS011;2203;53.686;9.994;2022-10-31T06:47:08;50.10;;;24.20;;
4377;SDS011;2203;53.686;9.994;2022-10-31T06:49:34;56.90;;;24.60;;
4377;SDS011;2203;53.686;9.994;2022-10-31T06:51:59;55.03;;;24.13;;
4377;SDS011;2203;53.686;9.994;2022-10-31T06:54:25;50.00;;;23.20;;
4377;SDS011;2203;53.686;9.994;2022-10-31T06:56:50;51.93;;;22.47;;
4377;SDS011;2203;53.686;9.994;2022-10-31T06:59:16;50.90;;;22.87;;
4377;SDS011;2203;53.686;9.994;2022-10-31T07:01:41;49.67;;;25.10;;
4377;SDS011;2203;53.686;9.994;2022-10-31T07:04:08;48.73;;;24.67;;
4377;SDS011;2203;53.686;9.994;2022-10-31T07:06:34;52.33;;;22.87;;
4377;SDS011;2203;53.686;9.994;2022-10-31T07:09:00;51.03;;;23.10;;
4377;SDS011;2203;53.686;9.994;2022-10-31T07:11:25;43.93;;;22.03;;
4377;SDS011;2203;53.686;9.994;2022-10-31T07:13:50;42.63;;;21.03;;
4377;SDS011;2203;53.686;9.994;2022-10-31T07:16:16;50.53;;;23.80;;
4377;SDS011;2203;53.686;9.994;2022-10-31T07:18:41;63.50;;;23.73;;
4377;SDS011;2203;53.686;9.994;2022-10-31T07:21:07;42.00;;;21.47;;
4377;SDS011;2203;53.686;9.994;2022-10-31T07:23:32;43.83;;;21.13;;
4377;SDS011;2203;53.686;9.994;2022-10-31T07:25:58;62.00;;;24.07;;
4377;SDS011;2203;53.686;9.994;2022-10-31T07:28:24;58.30;;;23.70;;
4377;SDS011;2203;53.686;9.994;2022-10-31T07:30:51;54.33;;;21.73;;
4377;SDS011;2203;53.686;9.994;2022-10-31T07:33:17;45.47;;;21.37;;
4377;SDS011;2203;53.686;9.994;2022-10-31T07:35:42;53.50;;;24.17;;
4377;SDS011;2203;53.686;9.994;2022-10-31T07:38:11;44.63;;;22.57;;
4377;SDS011;2203;53.686;9.994;2022-10-31T07:40:37;54.13;;;24.70;;
4377;SDS011;2203;53.686;9.994;2022-10-31T07:43:03;48.43;;;24.73;;
4377;SDS011;2203;53.686;9.994;2022-10-31T07:45:29;47.03;;;23.43;;
4377;SDS011;2203;53.686;9.994;2022-10-31T07:47:54;70.10;;;22.90;;
4377;SDS011;2203;53.686;9.994;2022-10-31T07:50:29;43.70;;;21.93;;
4377;SDS011;2203;53.686;9.994;2022-10-31T07:55:29;47.50;;;23.53;;
4377;SDS011;2203;53.686;9.994;2022-10-31T07:57:58;49.23;;;22.20;;
4377;SDS011;2203;53.686;9.994;2022-10-31T08:00:25;56.73;;;22.00;;
4377;SDS011;2203;53.686;9.994;2022-10-31T08:02:57;45.37;;;23.00;;
4377;SDS011;2203;53.686;9.994;2022-10-31T08:05:24;49.57;;;22.90;;
4377;SDS011;2203;53.686;9.994;2022-10-31T08:07:49;45.43;;;23.40;;
4377;SDS011;2203;53.686;9.994;2022-10-31T08:10:14;42.30;;;21.27;;
4377;SDS011;2203;53.686;9.994;2022-10-31T08:12:40;41.27;;;22.43;;
4377;SDS011;2203;53.686;9.994;2022-10-31T08:15:05;39.73;;;20.10;;
4377;SDS011;2203;53.686;9.994;2022-10-31T08:17:34;38.10;;;21.03;;
4377;SDS011;2203;53.686;9.994;2022-10-31T08:20:00;42.20;;;22.10;;
4377;SDS011;2203;53.686;9.994;2022-10-31T08:22:25;39.07;;;18.77;;
4377;SDS011;2203;53.686;9.994;2022-10-31T08:24:51;37.27;;;20.53;;
4377;SDS011;2203;53.686;9.994;2022-10-31T08:27:16;35.20;;;19.40;;
4377;SDS011;2203;53.686;9.994;2022-10-31T08:29:41;39.77;;;19.83;;
4377;SDS011;2203;53.686;9.994;2022-10-31T08:32:07;52.07;;;17.77;;
4377;SDS011;2203;53.686;9.994;2022-10-31T08:34:32;36.30;;;17.43;;
4377;SDS011;2203;53.686;9.994;2022-10-31T08:36:58;31.90;;;18.47;;
4377;SDS011;2203;53.686;9.994;2022-10-31T08:39:23;42.47;;;21.10;;
4377;SDS011;2203;53.686;9.994;2022-10-31T08:41:48;50.53;;;22.00;;
4377;SDS011;2203;53.686;9.994;2022-10-31T08:44:15;41.67;;;18.23;;
4377;SDS011;2203;53.686;9.994;2022-10-31T08:46:40;44.90;;;19.00;;
4377;SDS011;2203;53.686;9.994;2022-10-31T08:49:06;35.40;;;17.03;;
4377;SDS011;2203;53.686;9.994;2022-10-31T08:51:31;36.10;;;17.70;;
4377;SDS011;2203;53.686;9.994;2022-10-31T08:53:57;40.17;;;17.80;;
4377;SDS011;2203;53.686;9.994;2022-10-31T08:56:22;29.20;;;15.17;;
4377;SDS011;2203;53.686;9.994;2022-10-31T08:58:48;36.83;;;17.40;;
4377;SDS011;2203;53.686;9.994;2022-10-31T09:01:13;29.10;;;16.57;;
4377;SDS011;2203;53.686;9.994;2022-10-31T09:03:38;32.63;;;16.60;;
4377;SDS011;2203;53.686;9.994;2022-10-31T09:06:04;25.80;;;15.00;;
4377;SDS011;2203;53.686;9.994;2022-10-31T09:08:33;30.93;;;16.00;;
4377;SDS011;2203;53.686;9.994;2022-10-31T09:10:59;35.43;;;16.30;;
4377;SDS011;2203;53.686;9.994;2022-10-31T09:13:24;29.87;;;15.20;;
4377;SDS011;2203;53.686;9.994;2022-10-31T09:15:50;33.07;;;15.70;;
4377;SDS011;2203;53.686;9.994;2022-10-31T09:18:17;32.80;;;16.03;;
4377;SDS011;2203;53.686;9.994;2022-10-31T09:20:44;28.70;;;16.40;;
4377;SDS011;2203;53.686;9.994;2022-10-31T09:23:18;33.63;;;17.33;;
4377;SDS011;2203;53.686;9.994;2022-10-31T09:25:45;37.23;;;17.80;;
4377;SDS011;2203;53.686;9.994;2022-10-31T09:28:12;31.90;;;17.77;;
4377;SDS011;2203;53.686;9.994;2022-10-31T09:30:38;33.57;;;16.10;;
4377;SDS011;2203;53.686;9.994;2022-10-31T09:33:05;35.60;;;16.47;;
4377;SDS011;2203;53.686;9.994;2022-10-31T09:35:32;31.10;;;15.97;;
4377;SDS011;2203;53.686;9.994;2022-10-31T09:37:59;27.53;;;14.90;;
4377;SDS011;2203;53.686;9.994;2022-10-31T09:40:38;32.20;;;15.60;;
4377;SDS011;2203;53.686;9.994;2022-10-31T09:48:51;35.07;;;18.30;;
4377;SDS011;2203;53.686;9.994;2022-10-31T09:51:39;34.17;;;17.60;;
4377;SDS011;2203;53.686;9.994;2022-10-31T09:54:12;36.10;;;18.40;;
4377;SDS011;2203;53.686;9.994;2022-10-31T09:56:40;37.10;;;17.60;;
4377;SDS011;2203;53.686;9.994;2022-10-31T09:59:10;34.73;;;17.27;;
4377;SDS011;2203;53.686;9.994;2022-10-31T10:01:46;33.37;;;17.30;;
4377;SDS011;2203;53.686;9.994;2022-10-31T10:04:18;32.93;;;15.83;;
4377;SDS011;2203;53.686;9.994;2022-10-31T10:07:00;32.90;;;15.50;;
4377;SDS011;2203;53.686;9.994;2022-10-31T10:09:30;32.40;;;14.90;;
4377;SDS011;2203;53.686;9.994;2022-10-31T10:15:19;27.73;;;13.80;;
4377;SDS011;2203;53.686;9.994;2022-10-31T10:20:50;48.87;;;24.80;;
4377;SDS011;2203;53.686;9.994;2022-10-31T10:23:34;34.47;;;17.63;;
4377;SDS011;2203;53.686;9.994;2022-10-31T10:26:15;29.00;;;15.73;;
4377;SDS011;2203;53.686;9.994;2022-10-31T10:28:45;29.33;;;15.07;;
4377;SDS011;2203;53.686;9.994;2022-10-31T10:31:15;31.77;;;15.40;;
4377;SDS011;2203;53.686;9.994;2022-10-31T10:33:50;30.93;;;15.23;;
4377;SDS011;2203;53.686;9.994;2022-10-31T10:36:32;40.37;;;15.40;;
4377;SDS011;2203;53.686;9.994;2022-10-31T10:39:23;32.70;;;15.00;;
4377;SDS011;2203;53.686;9.994;2022-10-31T10:42:14;32.53;;;15.47;;
4377;SDS011;2203;53.686;9.994;2022-10-31T10:44:59;33.80;;;16.57;;
4377;SDS011;2203;53.686;9.994;2022-10-31T10:47:44;29.67;;;14.53;;
4377;SDS011;2203;53.686;9.994;2022-10-31T10:50:17;31.30;;;15.10;;
4377;SDS011;2203;53.686;9.994;2022-10-31T10:52:51;31.30;;;14.90;;
4377;SDS011;2203;53.686;9.994;2022-10-31T11:00:23;30.20;;;15.10;;
4377;SDS011;2203;53.686;9.994;2022-10-31T11:02:48;27.73;;;13.03;;
4377;SDS011;2203;53.686;9.994;2022-10-31T11:05:57;24.73;;;13.30;;
4377;SDS011;2203;53.686;9.994;2022-10-31T11:08:23;36.83;;;14.30;;
4377;SDS011;2203;53.686;9.994;2022-10-31T11:14:05;27.87;;;12.77;;
4377;SDS011;2203;53.686;9.994;2022-10-31T11:16:40;26.90;;;13.60;;
4377;SDS011;2203;53.686;9.994;2022-10-31T11:19:19;32.60;;;14.00;;
4377;SDS011;2203;53.686;9.994;2022-10-31T11:21:46;34.97;;;13.40;;
4377;SDS011;2203;53.686;9.994;2022-10-31T11:24:13;23.97;;;12.87;;
4377;SDS011;2203;53.686;9.994;2022-10-31T11:26:41;27.60;;;14.20;;
4377;SDS011;2203;53.686;9.994;2022-10-31T11:29:22;29.10;;;14.67;;
4377;SDS011;2203;53.686;9.994;2022-10-31T11:31:50;31.47;;;15.27;;
4377;SDS011;2203;53.686;9.994;2022-10-31T11:36:53;38.27;;;15.67;;
4377;SDS011;2203;53.686;9.994;2022-10-31T11:39:22;32.90;;;15.63;;
4377;SDS011;2203;53.686;9.994;2022-10-31T11:41:49;27.00;;;13.90;;
4377;SDS011;2203;53.686;9.994;2022-10-31T11:44:19;35.57;;;15.43;;
4377;SDS011;2203;53.686;9.994;2022-10-31T11:46:50;33.20;;;15.00;;
4377;SDS011;2203;53.686;9.994;2022-10-31T11:52:01;29.87;;;14.50;;
4377;SDS011;2203;53.686;9.994;2022-10-31T11:54:30;39.80;;;16.33;;
4377;SDS011;2203;53.686;9.994;2022-10-31T11:56:58;35.87;;;15.83;;
4377;SDS011;2203;53.686;9.994;2022-10-31T11:59:27;35.50;;;15.77;;
4377;SDS011;2203;53.686;9.994;2022-10-31T12:01:55;33.70;;;16.43;;
4377;SDS011;2203;53.686;9.994;2022-10-31T12:04:31;25.47;;;14.20;;
4377;SDS011;2203;53.686;9.994;2022-10-31T12:07:01;32.10;;;14.37;;
4377;SDS011;2203;53.686;9.994;2022-10-31T12:09:27;25.13;;;13.20;;
4377;SDS011;2203;53.686;9.994;2022-10-31T12:17:58;29.50;;;14.60;;
4377;SDS011;2203;53.686;9.994;2022-10-31T12:22:54;27.10;;;15.17;;
4377;SDS011;2203;53.686;9.994;2022-10-31T12:31:13;27.97;;;15.97;;
4377;SDS011;2203;53.686;9.994;2022-10-31T12:33:59;30.77;;;18.03;;
4377;SDS011;2203;53.686;9.994;2022-10-31T12:36:51;38.20;;;16.63;;
4377;SDS011;2203;53.686;9.994;2022-10-31T12:39:29;27.20;;;15.87;;
4377;SDS011;2203;53.686;9.994;2022-10-31T12:42:11;23.90;;;16.30;;
4377;SDS011;2203;53.686;9.994;2022-10-31T12:47:53;28.30;;;15.90;;
4377;SDS011;2203;53.686;9.994;2022-10-31T12:50:22;28.83;;;16.87;;
4377;SDS011;2203;53.686;9.994;2022-10-31T12:58:21;30.93;;;15.40;;
4377;SDS011;2203;53.686;9.994;2022-10-31T13:00:51;30.33;;;15.97;;
4377;SDS011;2203;53.686;9.994;2022-10-31T13:03:31;31.97;;;17.43;;
4377;SDS011;2203;53.686;9.994;2022-10-31T13:06:02;27.27;;;16.70;;
4377;SDS011;2203;53.686;9.994;2022-10-31T13:08:40;34.43;;;17.20;;
4377;SDS011;2203;53.686;9.994;2022-10-31T13:11:21;30.20;;;17.03;;
4377;SDS011;2203;53.686;9.994;2022-10-31T13:14:03;35.70;;;16.27;;
4377;SDS011;2203;53.686;9.994;2022-10-31T13:16:39;29.10;;;15.40;;
4377;SDS011;2203;53.686;9.994;2022-10-31T13:19:22;37.33;;;16.03;;
4377;SDS011;2203;53.686;9.994;2022-10-31T13:22:00;27.67;;;16.50;;
4377;SDS011;2203;53.686;9.994;2022-10-31T13:24:40;30.20;;;14.40;;
4377;SDS011;2203;53.686;9.994;2022-10-31T13:27:17;33.17;;;14.40;;
4377;SDS011;2203;53.686;9.994;2022-10-31T13:38:10;25.80;;;15.10;;
4377;SDS011;2203;53.686;9.994;2022-10-31T13:40:45;28.00;;;15.20;;
4377;SDS011;2203;53.686;9.994;2022-10-31T13:43:23;29.30;;;15.83;;
4377;SDS011;2203;53.686;9.994;2022-10-31T13:45:55;34.27;;;16.43;;
4377;SDS011;2203;53.686;9.994;2022-10-31T13:50:56;36.70;;;16.70;;
4377;SDS011;2203;53.686;9.994;2022-10-31T13:53:43;50.03;;;16.70;;
4377;SDS011;2203;53.686;9.994;2022-10-31T13:58:38;35.83;;;17.03;;
4377;SDS011;2203;53.686;9.994;2022-10-31T14:01:26;35.20;;;16.50;;
4377;SDS011;2203;53.686;9.994;2022-10-31T14:04:03;33.90;;;15.97;;
4377;SDS011;2203;53.686;9.994;2022-10-31T14:06:38;26.97;;;14.30;;
4377;SDS011;2203;53.686;9.994;2022-10-31T14:09:14;34.87;;;16.53;;
4377;SDS011;2203;53.686;9.994;2022-10-31T14:11:45;33.43;;;14.80;;
4377;SDS011;2203;53.686;9.994;2022-10-31T14:14:12;32.10;;;15.57;;
4377;SDS011;2203;53.686;9.994;2022-10-31T14:16:37;29.43;;;15.33;;
4377;SDS011;2203;53.686;9.994;2022-10-31T14:19:06;33.90;;;15.90;;
4377;SDS011;2203;53.686;9.994;2022-10-31T14:21:38;31.77;;;18.07;;
4377;SDS011;2203;53.686;9.994;2022-10-31T14:27:00;38.03;;;15.53;;
4377;SDS011;2203;53.686;9.994;2022-10-31T14:29:48;31.60;;;15.87;;
4377;SDS011;2203;53.686;9.994;2022-10-31T14:32:19;36.30;;;15.43;;
4377;SDS011;2203;53.686;9.994;2022-10-31T14:37:37;28.60;;;14.87;;
4377;SDS011;2203;53.686;9.994;2022-10-31T14:43:01;32.00;;;15.60;;
4377;SDS011;2203;53.686;9.994;2022-10-31T14:51:40;44.27;;;21.00;;
4377;SDS011;2203;53.686;9.994;2022-10-31T14:54:11;41.70;;;19.77;;
4377;SDS011;2203;53.686;9.994;2022-10-31T14:59:42;41.30;;;21.73;;
4377;SDS011;2203;53.686;9.994;2022-10-31T15:04:39;42.13;;;18.90;;
4377;SDS011;2203;53.686;9.994;2022-10-31T15:07:18;40.87;;;19.93;;
4377;SDS011;2203;53.686;9.994;2022-10-31T15:09:55;40.93;;;20.40;;
4377;SDS011;2203;53.686;9.994;2022-10-31T15:12:23;42.53;;;19.77;;
4377;SDS011;2203;53.686;9.994;2022-10-31T15:14:48;42.23;;;21.23;;
4377;SDS011;2203;53.686;9.994;2022-10-31T15:17:14;46.07;;;20.37;;
4377;SDS011;2203;53.686;9.994;2022-10-31T15:19:40;45.37;;;21.00;;
4377;SDS011;2203;53.686;9.994;2022-10-31T15:22:07;45.87;;;20.40;;
4377;SDS011;2203;53.686;9.994;2022-10-31T15:24:38;39.10;;;18.37;;
4377;SDS011;2203;53.686;9.994;2022-10-31T15:27:04;46.17;;;19.67;;
4377;SDS011;2203;53.686;9.994;2022-10-31T15:29:30;42.67;;;18.70;;
4377;SDS011;2203;53.686;9.994;2022-10-31T15:31:57;38.57;;;18.70;;
4377;SDS011;2203;53.686;9.994;2022-10-31T15:34:40;44.20;;;19.13;;
4377;SDS011;2203;53.686;9.994;2022-10-31T15:37:10;40.93;;;19.03;;
4377;SDS011;2203;53.686;9.994;2022-10-31T15:39:36;52.90;;;19.83;;
4377;SDS011;2203;53.686;9.994;2022-10-31T15:42:02;45.93;;;18.80;;
4377;SDS011;2203;53.686;9.994;2022-10-31T15:44:31;13.83;;;6.70;;
4377;SDS011;2203;53.686;9.994;2022-10-31T15:52:03;23.97;;;12.50;;
4377;SDS011;2203;53.686;9.994;2022-10-31T15:54:49;31.53;;;14.80;;
4377;SDS011;2203;53.686;9.994;2022-10-31T15:57:16;41.90;;;13.93;;
4377;SDS011;2203;53.686;9.994;2022-10-31T15:59:44;39.37;;;15.57;;
4377;SDS011;2203;53.686;9.994;2022-10-31T16:02:11;36.90;;;15.27;;
4377;SDS011;2203;53.686;9.994;2022-10-31T16:04:47;32.83;;;13.10;;
4377;SDS011;2203;53.686;9.994;2022-10-31T16:07:14;26.47;;;10.93;;
4377;SDS011;2203;53.686;9.994;2022-10-31T16:12:15;19.33;;;9.73;;
4377;SDS011;2203;53.686;9.994;2022-10-31T16:14:41;26.10;;;10.47;;
4377;SDS011;2203;53.686;9.994;2022-10-31T16:17:11;21.20;;;11.17;;
4377;SDS011;2203;53.686;9.994;2022-10-31T16:19:43;22.70;;;11.73;;
4377;SDS011;2203;53.686;9.994;2022-10-31T16:22:13;19.33;;;10.70;;
4377;SDS011;2203;53.686;9.994;2022-10-31T16:27:19;24.90;;;11.53;;
4377;SDS011;2203;53.686;9.994;2022-10-31T16:29:50;28.57;;;12.63;;
4377;SDS011;2203;53.686;9.994;2022-10-31T16:32:26;27.80;;;13.30;;
4377;SDS011;2203;53.686;9.994;2022-10-31T16:35:00;33.47;;;14.00;;
4377;SDS011;2203;53.686;9.994;2022-10-31T16:37:41;38.50;;;15.83;;
4377;SDS011;2203;53.686;9.994;2022-10-31T16:40:08;31.50;;;15.27;;
4377;SDS011;2203;53.686;9.994;2022-10-31T16:42:40;28.90;;;15.20;;
4377;SDS011;2203;53.686;9.994;2022-10-31T16:45:06;35.03;;;15.93;;
4377;SDS011;2203;53.686;9.994;2022-10-31T16:47:33;33.03;;;15.97;;
4377;SDS011;2203;53.686;9.994;2022-10-31T16:49:58;36.20;;;17.13;;
4377;SDS011;2203;53.686;9.994;2022-10-31T16:52:27;34.63;;;18.33;;
4377;SDS011;2203;53.686;9.994;2022-10-31T16:54:52;45.03;;;18.73;;
4377;SDS011;2203;53.686;9.994;2022-10-31T16:57:20;42.47;;;18.23;;
4377;SDS011;2203;53.686;9.994;2022-10-31T16:59:51;36.50;;;18.70;;
4377;SDS011;2203;53.686;9.994;2022-10-31T17:02:18;43.50;;;21.20;;
4377;SDS011;2203;53.686;9.994;2022-10-31T17:04:44;36.30;;;18.73;;
4377;SDS011;2203;53.686;9.994;2022-10-31T17:07:10;45.93;;;21.00;;
4377;SDS011;2203;53.686;9.994;2022-10-31T17:09:35;49.10;;;22.07;;